Antioch, Illinois
Current Conditions -  °F | °C
As of 6:53 PM on Saturday 25 Oct 2014 (Local Time) from KENW Reporting Station
Clear Clear  
Wind Chill: 60°   Ceiling: Unl
Heat Index: 60°   Visibility: 10mi
Dew Point: 28°   Wind: 10mph
Humidity: 30%   Direction: 290°WNW
Pressure: 29.92"   Gusts: NA
Location:  42.48°N, 88.1°W
Report Text: KENW 252353Z 29009KT 10SM CLR 16/M02 A2992 RMK AO2 SLP133 T01561022 10211 20156 53008
Loading
Personal Weather Stations






























Interactive Weather Map
Tropical Storm Tracking
New forecast layout! Learn more

10-Day Weather Forecast

Advertisements
Track Severe Weather on mobile